Terminal Aerodrome Forecast
Issued by NWS Cleveland, OH

Home | Current Version | Previous Version | Graphics & Text | Print | Product List | Glossary On
Versions: 1 2 3 4 5 6 7 8 9 10 11 12 13 14 15 16 17 18 19 20 21 22 23 24 25 26 27 28 29 30 31 32 33 34 35 36
865
FTUS41 KCLE 202050 AAA
TAFCLE
TAF AMD
KCLE 202050Z 2021/2124 20017KT P6SM BKN060
     FM211000 21016KT 6SM SHRA OVC035
     FM211400 27013KT 4SM SHRA OVC007
     FM211900 31010KT P6SM -SHRA BKN030=

USA.gov is the U.S. government's official web portal to all federal, state and local government web resources and services.